• Join FlightAware (Why Join?)
  • Login
  • US Flag 
09:57PM EDT


 

Airport Tracker/Info


-or-


 

Live Flight TrackerFlight Track Log ✈ N137TK ✈ 23-Aug-2013 ✈ KAPF - KMTH

Flight Track Log - Related Links

Times and Time Zones

All times are in EDT time to prevent confusion due to time zone crossing. See the N137TK flight status page for this flight to view local times or setup timezone preferences in your user account.

Time Position Orientation Groundspeed Altitude Reporting Facility
EDT Latitude Longitude Course Direction KTS MPH feet Rate Location/Type
05:11PM 26.1550 -81.6914 169° South 169 194 4,600  Level Miami Center
05:12PM 26.1117 -81.6781 165° South 178 205 6,700 1,920 Climbing Miami Center
05:13PM 26.0639 -81.6692 171° South 178 205 8,500 1,140 Climbing Miami Center
05:14PM 26.0053 -81.6761 186° South 196 226 9,000 240 Climbing Miami Center
05:15PM 25.9381 -81.6872 188° South 229 264 9,000  Level Miami Center
05:16PM 25.8752 -81.6037 169° South  Level FlightAware Approximate
05:16PM 25.8708 -81.7008 190° South 253 291 9,000  Level Miami Center
05:17PM 25.8232 -81.5922 169° South  Level FlightAware Approximate
05:17PM 25.8036 -81.7119 188° South 253 291 9,000  Level Miami Center
05:18PM 25.7328 -81.7089 178° South 258 297 9,000  Level Miami Center
05:19PM 25.6683 -81.6972 171° South 253 291 9,000 -60 Level Miami Center
05:20PM 25.6000 -81.6806 168° South 253 291 8,900 -60 Descending Miami Center
05:21PM 25.5336 -81.6642 167° South 253 291 8,900  Level Miami Center
05:22PM 25.4653 -81.6478 168° South 253 291 8,900  Level Miami Center
05:23PM 25.4014 -81.6267 163° South 253 291 9,000  Climbing Miami Center
05:24PM 25.3378 -81.5922 154° Southeast 258 297 8,900 -60 Descending Miami Center
05:25PM 25.2825 -81.5508 146° Southeast 247 284 8,900  Level Miami Center
05:26PM 25.2278 -81.5028 142° Southeast 247 284 8,900 -600 Level Miami Center
05:27PM 25.1628 -81.4431 140° Southeast 252 290 7,700 -1,140 Descending Miami Center
05:28PM 25.1081 -81.3906 139° Southeast 257 296 6,700 -1,020 Descending Miami Center
05:29PM 25.0489 -81.3447 145° Southeast 257 296 5,700 -1,020 Descending Miami Center
05:30PM 24.9894 -81.3014 147° Southeast 257 296 4,700 -1,020 Descending Miami Center